Aviation Digital Data Service (ADDS)

Output produced by METARs form (0630 UTC 19 March 2019)
found at http://www.aviationweather.gov/metar/data/
 
Forecast for: EKRK (COPENHAGEN/ROSKI, DK)
Text: TAF EKRK 190456Z 1906/1915 30010KT 9999 SCT030
Forecast period: 0600 to 1500 UTC 19 March 2019
Forecast type: FROM: standard forecast or significant change
Winds: from the WNW (300 degrees) at 12 MPH (10 knots; 5.1 m/s)
Visibility: 6 or more miles 10+ km)
Ceiling: at least 12,000 feet AGL
Clouds: scattered clouds at 3000 feet AGL
Weather: no significant weather forecast for this period